ANA1724 ROMY-ROAH
Flight info
| Callsign | ANA1724 |
|---|---|
| Flight time | 0h 30m |
| Altitude | 17000 |
| Route | FREED Y57 VELNO |
| Aircraft | B738/M-SDE2E3FGHIRWXY/LB1 |
Departure
| Time | 2026-04-19 02:59 |
|---|---|
| Airport | Miyako Airport (ROMY) |
Arrival
| Time | 2026-04-19 03:29 |
|---|---|
| Airport | Naha International Airport (ROAH) |
| Time | Latitude | Longitude | Altitude | Speed | Heading |
|---|---|---|---|---|---|
| 2026-04-19 02:51 | 24.77979 | 125.29680 | 145 ft | 0 kts | 128° |
| 2026-04-19 02:53 | 24.77979 | 125.29679 | 145 ft | 1 kts | 128° |
| 2026-04-19 02:53 | 24.77995 | 125.29660 | 144 ft | 4 kts | 142° |
| 2026-04-19 02:53 | 24.78018 | 125.29645 | 144 ft | 4 kts | 160° |
| 2026-04-19 02:53 | 24.78041 | 125.29639 | 144 ft | 4 kts | 196° |
| 2026-04-19 02:54 | 24.78062 | 125.29654 | 144 ft | 4 kts | 227° |
| 2026-04-19 02:54 | 24.78071 | 125.29665 | 144 ft | 1 kts | 224° |
| 2026-04-19 02:55 | 24.78070 | 125.29664 | 144 ft | 1 kts | 224° |
| 2026-04-19 02:56 | 24.78051 | 125.29645 | 144 ft | 7 kts | 218° |
| 2026-04-19 02:56 | 24.78001 | 125.29596 | 142 ft | 12 kts | 237° |
| 2026-04-19 02:56 | 24.78026 | 125.29517 | 142 ft | 12 kts | 309° |
| 2026-04-19 02:56 | 24.78078 | 125.29448 | 144 ft | 12 kts | 309° |
| 2026-04-19 02:57 | 24.78107 | 125.29372 | 144 ft | 11 kts | 255° |
| 2026-04-19 02:57 | 24.78046 | 125.29307 | 144 ft | 14 kts | 218° |
| 2026-04-19 02:57 | 24.77948 | 125.29222 | 142 ft | 22 kts | 218° |
| 2026-04-19 02:57 | 24.77817 | 125.29110 | 142 ft | 24 kts | 218° |
| 2026-04-19 02:58 | 24.77692 | 125.28999 | 142 ft | 21 kts | 218° |
| 2026-04-19 02:58 | 24.77597 | 125.28958 | 142 ft | 9 kts | 208° |
| 2026-04-19 02:58 | 24.77589 | 125.28934 | 143 ft | 2 kts | 295° |
| 2026-04-19 02:58 | 24.77645 | 125.28959 | 142 ft | 32 kts | 39° |
| 2026-04-19 02:59 | 24.78055 | 125.29316 | 145 ft | 116 kts | 39° |
| 2026-04-19 02:59 | 24.78865 | 125.30008 | 353 ft | 167 kts | 36° |
| 2026-04-19 02:59 | 24.79759 | 125.30818 | 1369 ft | 165 kts | 46° |
| 2026-04-19 02:59 | 24.80426 | 125.31897 | 2272 ft | 185 kts | 57° |
| 2026-04-19 03:00 | 24.81150 | 125.33188 | 2734 ft | 217 kts | 58° |
| 2026-04-19 03:00 | 24.82003 | 125.34713 | 2909 ft | 249 kts | 58° |
| 2026-04-19 03:00 | 24.82950 | 125.36412 | 3339 ft | 267 kts | 58° |
| 2026-04-19 03:00 | 24.83933 | 125.38176 | 4133 ft | 271 kts | 57° |
| 2026-04-19 03:01 | 24.84934 | 125.39973 | 4870 ft | 278 kts | 57° |
| 2026-04-19 03:01 | 24.85951 | 125.41799 | 5646 ft | 282 kts | 57° |
| 2026-04-19 03:01 | 24.86982 | 125.43650 | 6414 ft | 286 kts | 57° |
| 2026-04-19 03:01 | 24.88030 | 125.45533 | 7109 ft | 291 kts | 57° |
| 2026-04-19 03:02 | 24.89095 | 125.47447 | 7817 ft | 295 kts | 57° |
| 2026-04-19 03:02 | 24.90177 | 125.49394 | 8543 ft | 299 kts | 57° |
| 2026-04-19 03:02 | 24.91269 | 125.51359 | 9275 ft | 303 kts | 57° |
| 2026-04-19 03:02 | 24.92365 | 125.53331 | 9975 ft | 308 kts | 57° |
| 2026-04-19 03:03 | 24.93502 | 125.55377 | 10385 ft | 323 kts | 57° |
| 2026-04-19 03:03 | 24.94719 | 125.57568 | 10559 ft | 345 kts | 57° |
| 2026-04-19 03:03 | 24.95998 | 125.59871 | 11006 ft | 357 kts | 57° |
| 2026-04-19 03:03 | 24.97301 | 125.62221 | 11625 ft | 362 kts | 57° |
| 2026-04-19 03:04 | 24.98625 | 125.64610 | 12309 ft | 367 kts | 57° |
| 2026-04-19 03:04 | 24.99971 | 125.67041 | 12842 ft | 375 kts | 57° |
| 2026-04-19 03:04 | 25.01340 | 125.69512 | 13481 ft | 380 kts | 57° |
| 2026-04-19 03:04 | 25.02720 | 125.72007 | 14102 ft | 384 kts | 57° |
| 2026-04-19 03:05 | 25.04118 | 125.74534 | 14707 ft | 388 kts | 57° |
| 2026-04-19 03:05 | 25.05531 | 125.77091 | 15372 ft | 390 kts | 57° |
| 2026-04-19 03:05 | 25.06952 | 125.79663 | 16043 ft | 394 kts | 58° |
| 2026-04-19 03:05 | 25.08386 | 125.82259 | 16633 ft | 399 kts | 58° |
| 2026-04-19 03:06 | 25.09833 | 125.84880 | 17007 ft | 402 kts | 58° |
| 2026-04-19 03:06 | 25.11284 | 125.87512 | 16985 ft | 400 kts | 58° |
| 2026-04-19 03:06 | 25.12730 | 125.90136 | 17000 ft | 399 kts | 58° |
| 2026-04-19 03:06 | 25.14158 | 125.92726 | 17008 ft | 400 kts | 58° |
| 2026-04-19 03:07 | 25.15604 | 125.95353 | 17024 ft | 401 kts | 58° |
| 2026-04-19 03:07 | 25.17052 | 125.97984 | 17014 ft | 402 kts | 58° |
| 2026-04-19 03:07 | 25.18508 | 126.00629 | 17010 ft | 403 kts | 58° |
| 2026-04-19 03:07 | 25.19963 | 126.03277 | 17013 ft | 404 kts | 58° |
| 2026-04-19 03:08 | 25.21426 | 126.05938 | 17007 ft | 405 kts | 58° |
| 2026-04-19 03:08 | 25.22891 | 126.08606 | 17008 ft | 406 kts | 58° |
| 2026-04-19 03:09 | 25.23883 | 126.10412 | 17002 ft | 406 kts | 58° |
| 2026-04-19 03:09 | 25.25366 | 126.13116 | 17006 ft | 406 kts | 58° |
| 2026-04-19 03:10 | 25.26825 | 126.15777 | 16999 ft | 406 kts | 58° |
| 2026-04-19 03:10 | 25.28265 | 126.18404 | 17000 ft | 405 kts | 58° |
| 2026-04-19 03:10 | 25.29723 | 126.21067 | 17003 ft | 404 kts | 58° |
| 2026-04-19 03:10 | 25.31177 | 126.23722 | 17003 ft | 404 kts | 58° |
| 2026-04-19 03:11 | 25.32630 | 126.26377 | 17012 ft | 403 kts | 58° |
| 2026-04-19 03:11 | 25.34081 | 126.29031 | 17007 ft | 403 kts | 58° |
| 2026-04-19 03:11 | 25.35528 | 126.31679 | 17004 ft | 402 kts | 58° |
| 2026-04-19 03:11 | 25.36972 | 126.34323 | 17009 ft | 402 kts | 58° |
| 2026-04-19 03:12 | 25.38420 | 126.36976 | 17004 ft | 402 kts | 58° |
| 2026-04-19 03:12 | 25.39863 | 126.39621 | 17002 ft | 402 kts | 58° |
| 2026-04-19 03:12 | 25.41309 | 126.42272 | 17004 ft | 402 kts | 58° |
| 2026-04-19 03:12 | 25.42754 | 126.44925 | 17006 ft | 402 kts | 58° |
| 2026-04-19 03:13 | 25.44196 | 126.47573 | 17007 ft | 402 kts | 58° |
| 2026-04-19 03:13 | 25.45642 | 126.50228 | 17002 ft | 402 kts | 58° |
| 2026-04-19 03:13 | 25.47083 | 126.52878 | 17006 ft | 402 kts | 58° |
| 2026-04-19 03:13 | 25.48521 | 126.55518 | 17001 ft | 394 kts | 58° |
| 2026-04-19 03:14 | 25.49922 | 126.58075 | 16957 ft | 383 kts | 58° |
| 2026-04-19 03:14 | 25.51307 | 126.60594 | 16658 ft | 382 kts | 58° |
| 2026-04-19 03:14 | 25.52678 | 126.63088 | 16341 ft | 377 kts | 58° |
| 2026-04-19 03:14 | 25.54037 | 126.65562 | 15986 ft | 375 kts | 58° |
| 2026-04-19 03:15 | 25.55387 | 126.68021 | 15635 ft | 372 kts | 58° |
| 2026-04-19 03:15 | 25.56723 | 126.70460 | 15291 ft | 370 kts | 58° |
| 2026-04-19 03:15 | 25.58040 | 126.72865 | 14940 ft | 368 kts | 58° |
| 2026-04-19 03:15 | 25.59365 | 126.75285 | 14573 ft | 366 kts | 58° |
| 2026-04-19 03:16 | 25.60681 | 126.77690 | 14227 ft | 365 kts | 58° |
| 2026-04-19 03:16 | 25.61993 | 126.80091 | 13866 ft | 364 kts | 58° |
| 2026-04-19 03:16 | 25.63300 | 126.82483 | 13499 ft | 362 kts | 58° |
| 2026-04-19 03:16 | 25.64598 | 126.84861 | 13128 ft | 360 kts | 58° |
| 2026-04-19 03:17 | 25.65892 | 126.87232 | 12775 ft | 359 kts | 58° |
| 2026-04-19 03:17 | 25.67182 | 126.89596 | 12409 ft | 357 kts | 58° |
| 2026-04-19 03:17 | 25.68465 | 126.91948 | 12043 ft | 355 kts | 58° |
| 2026-04-19 03:17 | 25.69740 | 126.94288 | 11697 ft | 353 kts | 58° |
| 2026-04-19 03:18 | 25.71005 | 126.96609 | 11360 ft | 350 kts | 58° |
| 2026-04-19 03:18 | 25.72261 | 126.98917 | 11019 ft | 348 kts | 58° |
| 2026-04-19 03:18 | 25.73508 | 127.01210 | 10669 ft | 346 kts | 58° |
| 2026-04-19 03:18 | 25.74747 | 127.03488 | 10392 ft | 341 kts | 58° |
| 2026-04-19 03:19 | 25.75955 | 127.05711 | 10256 ft | 332 kts | 58° |
| 2026-04-19 03:19 | 25.77133 | 127.07880 | 10097 ft | 324 kts | 58° |
| 2026-04-19 03:19 | 25.78282 | 127.09997 | 9977 ft | 316 kts | 58° |
| 2026-04-19 03:19 | 25.79395 | 127.12049 | 9775 ft | 310 kts | 58° |
| 2026-04-19 03:20 | 25.80508 | 127.14101 | 9350 ft | 313 kts | 58° |
| 2026-04-19 03:20 | 25.81632 | 127.16173 | 8998 ft | 313 kts | 58° |
| 2026-04-19 03:20 | 25.82753 | 127.18242 | 8685 ft | 312 kts | 58° |
| 2026-04-19 03:20 | 25.83867 | 127.20299 | 8395 ft | 310 kts | 58° |
| 2026-04-19 03:21 | 25.84973 | 127.22343 | 8097 ft | 308 kts | 58° |
| 2026-04-19 03:21 | 25.86075 | 127.24377 | 7805 ft | 306 kts | 58° |
| 2026-04-19 03:21 | 25.87166 | 127.26395 | 7519 ft | 304 kts | 58° |
| 2026-04-19 03:21 | 25.88251 | 127.28401 | 7227 ft | 302 kts | 58° |
| 2026-04-19 03:22 | 25.89328 | 127.30399 | 6947 ft | 301 kts | 59° |
| 2026-04-19 03:22 | 25.90137 | 127.32525 | 6639 ft | 296 kts | 72° |
| 2026-04-19 03:22 | 25.90661 | 127.34727 | 6377 ft | 294 kts | 76° |
| 2026-04-19 03:22 | 25.91130 | 127.36927 | 6080 ft | 292 kts | 76° |
| 2026-04-19 03:23 | 25.91603 | 127.39119 | 5795 ft | 291 kts | 76° |
| 2026-04-19 03:23 | 25.92085 | 127.41295 | 5512 ft | 289 kts | 76° |
| 2026-04-19 03:23 | 25.92575 | 127.43454 | 5238 ft | 287 kts | 76° |
| 2026-04-19 03:23 | 25.93064 | 127.45575 | 4958 ft | 286 kts | 76° |
| 2026-04-19 03:24 | 25.93559 | 127.47708 | 4683 ft | 284 kts | 75° |
| 2026-04-19 03:24 | 25.94054 | 127.49825 | 4392 ft | 282 kts | 75° |
| 2026-04-19 03:24 | 25.94547 | 127.51932 | 4129 ft | 281 kts | 75° |
| 2026-04-19 03:24 | 25.95040 | 127.54040 | 3886 ft | 287 kts | 75° |
| 2026-04-19 03:25 | 25.95555 | 127.56236 | 3555 ft | 301 kts | 76° |
| 2026-04-19 03:25 | 25.96307 | 127.58426 | 3273 ft | 305 kts | 55° |
| 2026-04-19 03:25 | 25.97256 | 127.59587 | 3210 ft | 297 kts | 38° |
| 2026-04-19 03:25 | 25.98972 | 127.60764 | 3132 ft | 284 kts | 25° |
| 2026-04-19 03:26 | 26.00699 | 127.61723 | 3033 ft | 271 kts | 24° |
| 2026-04-19 03:26 | 26.02347 | 127.62646 | 2891 ft | 269 kts | 26° |
| 2026-04-19 03:26 | 26.04023 | 127.63593 | 2567 ft | 268 kts | 25° |
| 2026-04-19 03:26 | 26.05756 | 127.64132 | 2377 ft | 257 kts | 356° |
| 2026-04-19 03:27 | 26.07495 | 127.63960 | 2158 ft | 246 kts | 353° |
| 2026-04-19 03:27 | 26.09160 | 127.63782 | 1697 ft | 235 kts | 354° |
| 2026-04-19 03:27 | 26.10715 | 127.63688 | 1402 ft | 214 kts | 355° |
| 2026-04-19 03:27 | 26.12145 | 127.63625 | 1117 ft | 197 kts | 356° |
| 2026-04-19 03:28 | 26.13455 | 127.63566 | 882 ft | 180 kts | 356° |
| 2026-04-19 03:28 | 26.14645 | 127.63510 | 681 ft | 163 kts | 355° |
| 2026-04-19 03:28 | 26.15727 | 127.63460 | 477 ft | 148 kts | 356° |
| 2026-04-19 03:28 | 26.16758 | 127.63410 | 304 ft | 147 kts | 355° |
| 2026-04-19 03:29 | 26.17779 | 127.63364 | 103 ft | 147 kts | 354° |
| 2026-04-19 03:29 | 26.18764 | 127.63316 | 26 ft | 129 kts | 357° |
| 2026-04-19 03:29 | 26.19516 | 127.63285 | 28 ft | 66 kts | 358° |
| 2026-04-19 03:29 | 26.19829 | 127.63267 | 29 ft | 27 kts | 357° |
| 2026-04-19 03:30 | 26.20011 | 127.63257 | 28 ft | 25 kts | 357° |
| 2026-04-19 03:30 | 26.20182 | 127.63249 | 28 ft | 24 kts | 358° |
| 2026-04-19 03:30 | 26.20291 | 127.63286 | 26 ft | 15 kts | 64° |
| 2026-04-19 03:30 | 26.20298 | 127.63400 | 27 ft | 15 kts | 88° |
| 2026-04-19 03:31 | 26.20301 | 127.63534 | 27 ft | 19 kts | 88° |
| 2026-04-19 03:31 | 26.20309 | 127.63702 | 27 ft | 24 kts | 87° |
| 2026-04-19 03:31 | 26.20317 | 127.63902 | 27 ft | 28 kts | 88° |
| 2026-04-19 03:31 | 26.20324 | 127.64123 | 27 ft | 29 kts | 88° |
| 2026-04-19 03:32 | 26.20342 | 127.64292 | 27 ft | 16 kts | 57° |
| 2026-04-19 03:32 | 26.20444 | 127.64314 | 27 ft | 15 kts | 356° |
| 2026-04-19 03:32 | 26.20550 | 127.64309 | 27 ft | 15 kts | 2° |
| 2026-04-19 03:32 | 26.20615 | 127.64380 | 27 ft | 14 kts | 85° |
| 2026-04-19 03:33 | 26.20622 | 127.64491 | 28 ft | 14 kts | 88° |
| 2026-04-19 03:33 | 26.20625 | 127.64599 | 28 ft | 14 kts | 88° |
| 2026-04-19 03:33 | 26.20627 | 127.64702 | 28 ft | 14 kts | 88° |
| 2026-04-19 03:33 | 26.20631 | 127.64807 | 27 ft | 13 kts | 87° |
| 2026-04-19 03:34 | 26.20654 | 127.64887 | 27 ft | 9 kts | 28° |
| 2026-04-19 03:34 | 26.20696 | 127.64912 | 27 ft | 6 kts | 28° |
| 2026-04-19 03:34 | 26.20715 | 127.64922 | 27 ft | 0 kts | 27° |